Weather at Astypalaia Airport

Public forecast

Using degrees Celsius for public forecast. Weather courtesy of forecast.io.

Closest aviation weather report (METAR) to Astypalaia Airport

Closest report is Kos Airport, 36.8 nm (68.1 km) ENE. Retrieved 2022/01/29 07:50 UTC (18 minutes ago):

LGKO 290750Z 10007KT 9999 FEW018 11/02 Q1020

Closest aviation forecast (TAF) to Astypalaia Airport

Closest forecast is Kos Airport, 36.8 nm (68.1 km) ENE. Retrieved 2022/01/29 06:12 UTC (2 hours ago):

TAF LGKO 290500Z 2906/3006 16012KT 9999 BKN025 BKN050 TEMPO 2912/2918 14015G25KT TEMPO 2918/3006 14022G32KT PROB40 TEMPO 2910/3006 5000 RA FEW012 FEW018TCU BKN020 PROB40 TEMPO 2912/3006 4000 TSRA SCT012 FEW018CB BKN020 BKN050